Aviation Digital Data Service (ADDS)

Output produced by TAFs form (2347 UTC 18 July 2018)
found at http://www.aviationweather.gov/adds/tafs/
 
RJFR 182300Z VRB02KT 9000 NSC 28/23 Q1011
TAF RJFR 182306Z 1900/2006 10003KT 9999 FEW030 
     BECMG 1912/1915 06007KT 
     BECMG 1921/2000 10008KT 
     BECMG 2003/2006 07010KT